Time;durP1;ratioP1;P1;durP2;ratioP2;P2;SDS_P1;SDS_P2;PMS_P1;PMS_P2;Temp;Humidity;BMP_temperature;BMP_pressure;BME280_temperature;BME280_humidity;BME280_pressure;Samples;Min_cycle;Max_cycle;Signal;HPM_P1;HPM_P2
2022/04/15 00:01:38;;;;;;;11.10;7.80;;;;;;;;;;5018484;28;20575;-80
2022/04/15 00:04:06;;;;;;;13.77;9.30;;;;;;;;;;5018941;28;20085;-80
2022/04/15 00:06:33;;;;;;;12.38;8.52;;;;;;;;;;5018763;28;20054;-80
2022/04/15 00:09:03;;;;;;;12.20;8.68;;;;;;;;;;5017739;28;20104;-80
2022/04/15 00:11:31;;;;;;;10.93;8.40;;;;;;;;;;5002157;28;20058;-80
2022/04/15 00:13:58;;;;;;;10.30;8.05;;;;;;;;;;5018084;28;20054;-80
2022/04/15 00:16:25;;;;;;;10.43;7.93;;;;;;;;;;5018461;28;20561;-80
2022/04/15 00:18:53;;;;;;;12.82;7.95;;;;;;;;;;5017109;28;20050;-80
2022/04/15 00:21:20;;;;;;;10.43;8.23;;;;;;;;;;5017611;28;20057;-80
2022/04/15 00:23:48;;;;;;;14.88;8.38;;;;;;;;;;5018443;28;20090;-80
2022/04/15 00:26:15;;;;;;;10.45;6.97;;;;;;;;;;5018564;28;20054;-80
2022/04/15 00:28:43;;;;;;;10.13;7.57;;;;;;;;;;5018826;28;20452;-80
2022/04/15 00:31:11;;;;;;;10.60;7.53;;;;;;;;;;5002623;28;20050;-80
2022/04/15 00:33:39;;;;;;;8.70;7.13;;;;;;;;;;5003274;28;20054;-80
2022/04/15 00:36:08;;;;;;;11.63;8.02;;;;;;;;;;5003678;28;20058;-80
2022/04/15 00:38:35;;;;;;;9.00;6.97;;;;;;;;;;5003271;28;20054;-80
2022/04/15 00:41:03;;;;;;;12.63;8.05;;;;;;;;;;5018319;28;20051;-80
2022/04/15 00:43:30;;;;;;;9.90;7.63;;;;;;;;;;5017038;28;20453;-80
2022/04/15 00:46:07;;;;;;;12.00;8.73;;;;;;;;;;5001928;28;20105;-80
2022/04/15 00:48:38;;;;;;;12.85;8.23;;;;;;;;;;5003479;28;20061;-81
2022/04/15 00:51:06;;;;;;;12.00;7.95;;;;;;;;;;5016953;28;20057;-81
2022/04/15 00:53:34;;;;;;;9.05;7.35;;;;;;;;;;5017723;28;20047;-81
2022/04/15 00:56:03;;;;;;;10.00;7.63;;;;;;;;;;5017890;28;20074;-81
2022/04/15 00:58:32;;;;;;;8.90;7.13;;;;;;;;;;5016511;28;20053;-81
2022/04/15 01:01:00;;;;;;;12.75;7.97;;;;;;;;;;5002146;28;20074;-80
2022/04/15 01:03:29;;;;;;;9.55;7.50;;;;;;;;;;5017677;28;20042;-80
2022/04/15 01:06:00;;;;;;;10.60;7.72;;;;;;;;;;5001771;28;20133;-80
2022/04/15 01:08:29;;;;;;;11.50;8.18;;;;;;;;;;5016311;28;20489;-81
2022/04/15 01:10:58;;;;;;;10.82;7.35;;;;;;;;;;5016624;28;20089;-81
2022/04/15 01:13:26;;;;;;;9.50;6.90;;;;;;;;;;5016078;28;20124;-80
2022/04/15 01:15:55;;;;;;;10.38;7.00;;;;;;;;;;5016249;28;20065;-81
2022/04/15 01:18:23;;;;;;;9.85;7.40;;;;;;;;;;5016172;28;20046;-81
2022/04/15 01:20:52;;;;;;;9.70;6.65;;;;;;;;;;5000738;28;20620;-81
2022/04/15 01:23:20;;;;;;;11.88;8.50;;;;;;;;;;5016607;28;20054;-81
2022/04/15 01:25:47;;;;;;;13.27;8.52;;;;;;;;;;5016638;28;20485;-81
2022/04/15 01:28:16;;;;;;;12.27;7.97;;;;;;;;;;5015981;28;20061;-81
2022/04/15 01:30:45;;;;;;;7.20;6.50;;;;;;;;;;5001236;28;20083;-81
2022/04/15 01:33:12;;;;;;;7.20;6.35;;;;;;;;;;5001516;28;20221;-81
2022/04/15 01:35:41;;;;;;;7.20;6.50;;;;;;;;;;5001484;28;20054;-81
2022/04/15 01:38:14;;;;;;;9.48;6.93;;;;;;;;;;5016420;28;20061;-81
2022/04/15 01:40:43;;;;;;;9.85;7.38;;;;;;;;;;5016250;28;20061;-81
2022/04/15 01:43:11;;;;;;;7.55;6.32;;;;;;;;;;5016008;28;20042;-81
2022/04/15 01:45:40;;;;;;;9.60;7.63;;;;;;;;;;5021102;28;20066;-82
2022/04/15 01:48:08;;;;;;;7.43;6.60;;;;;;;;;;5016708;28;20050;-81
2022/04/15 01:50:36;;;;;;;10.38;7.38;;;;;;;;;;5015641;28;20050;-81
2022/04/15 01:53:03;;;;;;;7.45;6.63;;;;;;;;;;5016259;28;20058;-81
2022/04/15 01:55:31;;;;;;;7.22;6.32;;;;;;;;;;5000712;28;20058;-81
2022/04/15 01:57:58;;;;;;;9.90;6.60;;;;;;;;;;5000934;28;20056;-81
2022/04/15 02:00:25;;;;;;;10.32;7.72;;;;;;;;;;5016077;28;20046;-81
2022/04/15 02:02:53;;;;;;;6.90;6.30;;;;;;;;;;5015571;28;20065;-82
2022/04/15 02:05:22;;;;;;;9.00;7.20;;;;;;;;;;5001087;28;20062;-81
2022/04/15 02:07:49;;;;;;;7.43;6.72;;;;;;;;;;5015805;28;20069;-82
2022/04/15 02:10:18;;;;;;;9.50;7.30;;;;;;;;;;5015582;28;20203;-82
2022/04/15 02:12:45;;;;;;;10.88;7.50;;;;;;;;;;5015526;28;20137;-82
2022/04/15 02:15:13;;;;;;;10.38;7.75;;;;;;;;;;5001332;28;20080;-82
2022/04/15 02:17:40;;;;;;;8.07;7.28;;;;;;;;;;5015510;28;20058;-82
2022/04/15 02:20:10;;;;;;;8.77;7.35;;;;;;;;;;5000448;28;20397;-82
2022/04/15 02:22:38;;;;;;;10.23;7.38;;;;;;;;;;5016419;28;20062;-82
2022/04/15 02:25:07;;;;;;;8.20;7.40;;;;;;;;;;5016328;28;20054;-82
2022/04/15 02:27:34;;;;;;;8.18;7.10;;;;;;;;;;5015292;28;20047;-82
2022/04/15 02:30:02;;;;;;;7.50;6.80;;;;;;;;;;5015960;28;20058;-82
2022/04/15 02:32:30;;;;;;;7.07;6.38;;;;;;;;;;5015978;28;20076;-82
2022/04/15 02:34:58;;;;;;;7.15;6.43;;;;;;;;;;5015714;28;20062;-82
2022/04/15 02:37:25;;;;;;;7.10;6.38;;;;;;;;;;5015761;28;20054;-81
2022/04/15 02:39:55;;;;;;;7.60;6.85;;;;;;;;;;5015240;28;20046;-82
2022/04/15 02:42:22;;;;;;;7.45;6.70;;;;;;;;;;5014987;28;20058;-82
2022/04/15 02:44:52;;;;;;;8.23;7.18;;;;;;;;;;5015407;28;20085;-82
2022/04/15 02:47:20;;;;;;;7.35;6.65;;;;;;;;;;5015246;28;20070;-82
2022/04/15 02:49:47;;;;;;;9.13;7.47;;;;;;;;;;5016070;28;20046;-82
2022/04/15 02:52:14;;;;;;;6.70;6.10;;;;;;;;;;5015236;28;20085;-82
2022/04/15 02:54:43;;;;;;;7.72;6.78;;;;;;;;;;5015514;28;20505;-82
2022/04/15 02:57:10;;;;;;;9.93;6.60;;;;;;;;;;5015516;28;20050;-82
2022/04/15 02:59:39;;;;;;;7.38;6.55;;;;;;;;;;5015919;28;20073;-82
2022/04/15 03:02:06;;;;;;;7.57;6.68;;;;;;;;;;5015289;28;20185;-82
2022/04/15 03:04:33;;;;;;;8.60;7.28;;;;;;;;;;5000824;28;20412;-81
2022/04/15 03:07:01;;;;;;;7.63;6.80;;;;;;;;;;5015626;28;20065;-82
2022/04/15 03:09:29;;;;;;;6.90;6.07;;;;;;;;;;5016056;28;20141;-82
2022/04/15 03:11:56;;;;;;;7.72;6.72;;;;;;;;;;5016094;28;20050;-82
2022/04/15 03:14:24;;;;;;;7.57;6.72;;;;;;;;;;5014888;28;20460;-82
2022/04/15 03:16:51;;;;;;;6.82;6.20;;;;;;;;;;5000584;28;20054;-82
2022/04/15 03:19:19;;;;;;;5.75;5.35;;;;;;;;;;5015577;28;20082;-82
2022/04/15 03:21:46;;;;;;;7.13;6.15;;;;;;;;;;5018714;28;20050;-82
2022/04/15 03:24:13;;;;;;;7.22;6.55;;;;;;;;;;5018390;28;20062;-82
2022/04/15 03:26:40;;;;;;;6.75;5.75;;;;;;;;;;5018494;28;20046;-82
2022/04/15 03:29:08;;;;;;;6.72;6.07;;;;;;;;;;5017690;28;20050;-82
2022/04/15 03:31:35;;;;;;;6.88;6.18;;;;;;;;;;5001852;28;20054;-82
2022/04/15 03:34:02;;;;;;;7.47;6.72;;;;;;;;;;5001473;28;20054;-82
2022/04/15 03:36:31;;;;;;;6.75;6.07;;;;;;;;;;5015907;28;20567;-82
2022/04/15 03:38:58;;;;;;;7.00;6.40;;;;;;;;;;5000199;28;20085;-82
2022/04/15 03:41:26;;;;;;;8.45;6.72;;;;;;;;;;5015577;28;20050;-82
2022/04/15 03:43:53;;;;;;;7.15;6.45;;;;;;;;;;5016819;28;20054;-82
2022/04/15 03:46:22;;;;;;;6.65;6.05;;;;;;;;;;5018599;28;20088;-82
2022/04/15 03:48:49;;;;;;;7.45;6.70;;;;;;;;;;5018383;28;20061;-82
2022/04/15 03:51:16;;;;;;;9.40;6.78;;;;;;;;;;5017673;28;20050;-82
2022/04/15 03:53:43;;;;;;;6.80;6.15;;;;;;;;;;5019229;28;20050;-82
2022/04/15 03:56:11;;;;;;;7.72;6.93;;;;;;;;;;5003569;28;20080;-82
2022/04/15 03:58:38;;;;;;;12.07;7.18;;;;;;;;;;5019272;28;20050;-82
2022/04/15 04:01:06;;;;;;;7.70;7.00;;;;;;;;;;5003306;28;20042;-81
2022/04/15 04:03:33;;;;;;;8.00;6.55;;;;;;;;;;5020369;28;20054;-82
2022/04/15 04:06:00;;;;;;;7.82;6.88;;;;;;;;;;5019925;28;20184;-82
2022/04/15 04:08:28;;;;;;;8.30;6.70;;;;;;;;;;5020164;28;20066;-82
2022/04/15 04:10:57;;;;;;;8.55;7.68;;;;;;;;;;5020256;28;20137;-82
2022/04/15 04:13:24;;;;;;;6.43;5.82;;;;;;;;;;5019258;28;20054;-82
2022/04/15 04:15:52;;;;;;;7.82;6.88;;;;;;;;;;5019178;28;20065;-81
2022/04/15 04:18:21;;;;;;;7.88;7.07;;;;;;;;;;5019915;28;20133;-82
2022/04/15 04:20:49;;;;;;;7.60;6.75;;;;;;;;;;5020041;28;20050;-82
2022/04/15 04:23:17;;;;;;;7.15;6.45;;;;;;;;;;5020058;28;20061;-82
2022/04/15 04:25:45;;;;;;;7.65;6.90;;;;;;;;;;5005249;28;20046;-81
2022/04/15 04:28:13;;;;;;;8.05;7.25;;;;;;;;;;5020314;28;20511;-82
2022/04/15 04:30:41;;;;;;;11.30;7.63;;;;;;;;;;5003899;28;20061;-82
2022/04/15 04:33:08;;;;;;;9.60;6.75;;;;;;;;;;5018685;28;20057;-82
2022/04/15 04:35:38;;;;;;;7.85;6.60;;;;;;;;;;5003433;28;20046;-82
2022/04/15 04:38:06;;;;;;;8.32;7.32;;;;;;;;;;5018728;28;20082;-82
2022/04/15 04:40:37;;;;;;;8.45;7.53;;;;;;;;;;5019857;28;20042;-82
2022/04/15 04:43:06;;;;;;;8.02;7.22;;;;;;;;;;5019485;28;20042;-82
2022/04/15 04:45:34;;;;;;;7.88;7.07;;;;;;;;;;5004508;28;20081;-82
2022/04/15 04:48:03;;;;;;;11.95;7.05;;;;;;;;;;5020238;28;20054;-82
2022/04/15 04:50:30;;;;;;;9.25;7.68;;;;;;;;;;5004517;28;20064;-81
2022/04/15 04:52:59;;;;;;;8.63;7.72;;;;;;;;;;5019431;28;20054;-82
2022/04/15 04:55:29;;;;;;;8.00;7.30;;;;;;;;;;5019587;28;20100;-82
2022/04/15 04:57:56;;;;;;;7.90;6.72;;;;;;;;;;5005077;28;20089;-82
2022/04/15 05:00:24;;;;;;;11.55;7.60;;;;;;;;;;5019403;28;20563;-81
2022/04/15 05:02:52;;;;;;;8.05;7.25;;;;;;;;;;5019714;28;20062;-82
2022/04/15 05:05:19;;;;;;;8.30;7.50;;;;;;;;;;5019122;28;20118;-82
2022/04/15 05:07:46;;;;;;;7.57;6.80;;;;;;;;;;5019950;28;20046;-82
2022/04/15 05:10:16;;;;;;;9.77;7.90;;;;;;;;;;5018134;28;20050;-82
2022/04/15 05:12:45;;;;;;;8.35;6.47;;;;;;;;;;5019049;28;20493;-82
2022/04/15 05:15:14;;;;;;;8.40;7.38;;;;;;;;;;5019176;28;20062;-82
2022/04/15 05:17:42;;;;;;;9.82;8.23;;;;;;;;;;5004202;28;20536;-82
2022/04/15 05:20:10;;;;;;;9.23;8.13;;;;;;;;;;5019004;28;20137;-82
2022/04/15 05:22:37;;;;;;;8.75;7.85;;;;;;;;;;5018576;28;20122;-82
2022/04/15 05:25:05;;;;;;;12.63;7.90;;;;;;;;;;5018183;28;20046;-82
2022/04/15 05:27:33;;;;;;;11.23;8.82;;;;;;;;;;5018582;28;20137;-82
2022/04/15 05:30:01;;;;;;;9.57;8.68;;;;;;;;;;5018571;28;20046;-82
2022/04/15 05:32:28;;;;;;;9.55;7.80;;;;;;;;;;5017759;28;20056;-82
2022/04/15 05:34:56;;;;;;;8.85;7.70;;;;;;;;;;5003047;28;20493;-82
2022/04/15 05:37:24;;;;;;;10.23;9.02;;;;;;;;;;5018641;28;20077;-82
2022/04/15 05:39:51;;;;;;;9.38;7.80;;;;;;;;;;5018637;28;20100;-82
2022/04/15 05:42:18;;;;;;;9.30;7.57;;;;;;;;;;5002015;28;20070;-82
2022/04/15 05:44:46;;;;;;;11.57;8.02;;;;;;;;;;5019190;28;20061;-82
2022/04/15 05:47:14;;;;;;;7.78;7.07;;;;;;;;;;5018220;28;20137;-82
2022/04/15 05:49:41;;;;;;;8.38;7.32;;;;;;;;;;5002589;28;20109;-82
2022/04/15 05:52:08;;;;;;;8.60;7.72;;;;;;;;;;5018952;28;20050;-82
2022/04/15 05:54:36;;;;;;;9.27;8.05;;;;;;;;;;5003010;28;20505;-82
2022/04/15 05:57:04;;;;;;;13.88;9.73;;;;;;;;;;5018625;28;20567;-81
2022/04/15 05:59:32;;;;;;;9.15;7.70;;;;;;;;;;5002209;28;20089;-82
2022/04/15 06:02:02;;;;;;;7.47;6.68;;;;;;;;;;5017943;28;20623;-82
2022/04/15 06:04:30;;;;;;;7.60;6.80;;;;;;;;;;5018760;28;20054;-82
2022/04/15 06:06:57;;;;;;;13.68;7.35;;;;;;;;;;5018303;28;20345;-82
2022/04/15 06:09:25;;;;;;;7.57;6.85;;;;;;;;;;5018100;28;20054;-82
2022/04/15 06:11:55;;;;;;;8.63;6.88;;;;;;;;;;5017765;28;20077;-82
2022/04/15 06:14:23;;;;;;;7.60;6.75;;;;;;;;;;5002100;28;20054;-82
2022/04/15 06:16:52;;;;;;;9.40;6.68;;;;;;;;;;5002103;28;20051;-82
2022/04/15 06:19:19;;;;;;;5.93;5.40;;;;;;;;;;5002557;28;20068;-82
2022/04/15 06:21:54;;;;;;;6.05;5.50;;;;;;;;;;5017043;28;20043;-83
2022/04/15 06:24:28;;;;;;;7.10;6.45;;;;;;;;;;5002886;28;20050;-82
2022/04/15 06:26:55;;;;;;;6.70;5.57;;;;;;;;;;5017990;28;20055;-82
2022/04/15 06:29:23;;;;;;;6.20;5.70;;;;;;;;;;5017690;28;20050;-82
2022/04/15 06:31:52;;;;;;;6.22;5.28;;;;;;;;;;5017392;28;20070;-82
2022/04/15 06:34:19;;;;;;;9.85;6.05;;;;;;;;;;5016401;28;20054;-83
2022/04/15 06:36:46;;;;;;;10.25;6.97;;;;;;;;;;5014870;28;20046;-82
2022/04/15 06:39:14;;;;;;;11.75;6.50;;;;;;;;;;5011919;28;20499;-82
2022/04/15 06:41:44;;;;;;;13.55;6.43;;;;;;;;;;5010613;28;20497;-82
2022/04/15 06:44:12;;;;;;;6.95;5.90;;;;;;;;;;5009533;28;20058;-82
2022/04/15 06:46:40;;;;;;;8.63;5.85;;;;;;;;;;4994371;28;20509;-82
2022/04/15 06:49:08;;;;;;;14.30;6.03;;;;;;;;;;5009711;28;20054;-83
2022/04/15 06:51:35;;;;;;;11.07;6.28;;;;;;;;;;5009008;28;20050;-82
2022/04/15 06:54:03;;;;;;;12.65;5.90;;;;;;;;;;5011092;28;20448;-82
2022/04/15 06:56:32;;;;;;;7.38;5.88;;;;;;;;;;5015783;28;20054;-82
2022/04/15 06:58:59;;;;;;;10.45;5.95;;;;;;;;;;5004912;28;20054;-82
2022/04/15 07:01:29;;;;;;;8.35;5.55;;;;;;;;;;5021361;28;20054;-82
2022/04/15 07:03:59;;;;;;;8.00;5.30;;;;;;;;;;5020406;28;20503;-83
2022/04/15 07:06:26;;;;;;;11.23;6.35;;;;;;;;;;5020308;28;20054;-82
2022/04/15 07:08:54;;;;;;;10.82;5.57;;;;;;;;;;5006792;28;20110;-83
2022/04/15 07:11:21;;;;;;;10.07;6.60;;;;;;;;;;5021116;28;20085;-82
2022/04/15 07:13:49;;;;;;;11.75;6.32;;;;;;;;;;5022443;28;20054;-83
2022/04/15 07:16:16;;;;;;;17.63;7.10;;;;;;;;;;5023449;28;20058;-83
2022/04/15 07:18:45;;;;;;;13.45;8.18;;;;;;;;;;5022772;28;20054;-83
2022/04/15 07:21:13;;;;;;;14.75;8.25;;;;;;;;;;5021385;28;20050;-83
2022/04/15 07:23:40;;;;;;;21.85;9.57;;;;;;;;;;5022326;28;20053;-83
2022/04/15 07:26:08;;;;;;;15.02;7.63;;;;;;;;;;5022186;28;20046;-83
2022/04/15 07:28:36;;;;;;;11.85;6.80;;;;;;;;;;5007727;28;20050;-83
2022/04/15 07:31:04;;;;;;;21.40;8.10;;;;;;;;;;5006767;28;20058;-83
2022/04/15 07:33:33;;;;;;;12.60;7.93;;;;;;;;;;5023761;28;20117;-82
2022/04/15 07:36:03;;;;;;;13.23;11.25;;;;;;;;;;5022846;28;20061;-83
2022/04/15 07:38:33;;;;;;;12.13;7.93;;;;;;;;;;5023431;28;20668;-84
2022/04/15 07:41:01;;;;;;;15.40;8.60;;;;;;;;;;5007681;28;20046;-84
2022/04/15 07:43:28;;;;;;;19.35;11.10;;;;;;;;;;5023576;28;20057;-84
2022/04/15 07:45:56;;;;;;;21.58;10.10;;;;;;;;;;5023961;28;20046;-81
2022/04/15 07:48:24;;;;;;;15.98;10.80;;;;;;;;;;5022875;28;20061;-82
2022/04/15 07:50:53;;;;;;;12.40;9.43;;;;;;;;;;5021408;28;20061;-81
2022/04/15 07:53:22;;;;;;;13.63;9.25;;;;;;;;;;5034958;28;20065;-82
2022/04/15 07:55:50;;;;;;;24.00;18.13;;;;;;;;;;5035598;28;20042;-82
2022/04/15 07:58:19;;;;;;;17.63;13.65;;;;;;;;;;5032422;28;20052;-83
2022/04/15 08:00:46;;;;;;;19.38;15.82;;;;;;;;;;5031506;28;20034;-83
2022/04/15 08:03:14;;;;;;;19.73;12.93;;;;;;;;;;5047733;22;20128;-84
2022/04/15 08:05:41;;;;;;;17.95;11.27;;;;;;;;;;4926189;28;20139;-84
2022/04/15 08:08:08;;;;;;;12.18;8.48;;;;;;;;;;4925866;28;20049;-84
2022/04/15 08:10:35;;;;;;;11.13;9.43;;;;;;;;;;4929689;28;20063;-83
2022/04/15 08:13:02;;;;;;;10.90;9.23;;;;;;;;;;4925067;28;20403;-83
2022/04/15 08:15:30;;;;;;;16.75;10.73;;;;;;;;;;4926158;28;20151;-86
2022/04/15 08:17:57;;;;;;;15.32;8.85;;;;;;;;;;4931686;28;20078;-85
2022/04/15 08:20:25;;;;;;;16.50;9.60;;;;;;;;;;4929518;28;20108;-84
2022/04/15 08:22:52;;;;;;;12.75;9.00;;;;;;;;;;4927014;28;20055;-82
2022/04/15 08:25:20;;;;;;;14.50;8.27;;;;;;;;;;4925759;28;20048;-81
2022/04/15 08:27:47;;;;;;;10.50;7.55;;;;;;;;;;4922640;28;20075;-84
2022/04/15 08:30:14;;;;;;;9.73;7.72;;;;;;;;;;4921597;28;20144;-82
2022/04/15 08:32:41;;;;;;;9.25;6.60;;;;;;;;;;4923780;28;20396;-82
2022/04/15 08:35:13;;;;;;;6.07;4.70;;;;;;;;;;4922902;28;20147;-82
2022/04/15 08:37:40;;;;;;;7.38;4.57;;;;;;;;;;4926161;28;20055;-84
2022/04/15 08:40:08;;;;;;;5.88;4.35;;;;;;;;;;4932696;28;20048;-85
2022/04/15 08:42:35;;;;;;;5.05;4.00;;;;;;;;;;4928457;28;20091;-83
2022/04/15 08:45:03;;;;;;;5.85;4.22;;;;;;;;;;4929599;28;20048;-85
2022/04/15 08:47:31;;;;;;;6.70;3.90;;;;;;;;;;4931227;28;20052;-83
2022/04/15 08:49:59;;;;;;;5.18;4.05;;;;;;;;;;4932405;28;20530;-87
2022/04/15 08:52:26;;;;;;;7.28;4.30;;;;;;;;;;4927401;28;20044;-84
2022/04/15 08:54:53;;;;;;;4.55;3.88;;;;;;;;;;4927168;28;20071;-84
2022/04/15 08:57:21;;;;;;;6.97;5.25;;;;;;;;;;4927039;28;20519;-83
2022/04/15 08:59:48;;;;;;;5.93;4.88;;;;;;;;;;4925683;28;20052;-84
2022/04/15 09:02:30;;;;;;;6.18;4.60;;;;;;;;;;4928452;28;20059;-83
2022/04/15 09:04:57;;;;;;;6.13;4.82;;;;;;;;;;4931798;28;20036;-85
2022/04/15 09:07:28;;;;;;;4.40;4.00;;;;;;;;;;4930084;28;20597;-84
2022/04/15 09:09:56;;;;;;;6.03;4.30;;;;;;;;;;4925499;28;20107;-84
2022/04/15 09:12:25;;;;;;;4.68;4.05;;;;;;;;;;4928299;28;20052;-83
2022/04/15 09:15:00;;;;;;;5.07;4.05;;;;;;;;;;4925604;28;20044;-84
2022/04/15 09:17:42;;;;;;;5.20;4.70;;;;;;;;;;4925418;28;20052;-83
2022/04/15 09:20:11;;;;;;;5.72;3.88;;;;;;;;;;4927274;28;20084;-81
2022/04/15 09:22:38;;;;;;;5.35;4.13;;;;;;;;;;4925484;28;20136;-85
2022/04/15 09:25:06;;;;;;;3.92;3.38;;;;;;;;;;4932310;28;20079;-84
2022/04/15 09:27:41;;;;;;;11.35;4.10;;;;;;;;;;4936511;28;20036;-86
2022/04/15 09:30:08;;;;;;;4.68;3.17;;;;;;;;;;4936156;28;20059;-84
2022/04/15 09:32:39;;;;;;;6.63;3.33;;;;;;;;;;4926190;28;20048;-84
2022/04/15 09:35:07;;;;;;;3.72;3.05;;;;;;;;;;4926101;28;20059;-85
2022/04/15 09:37:39;;;;;;;2.95;2.72;;;;;;;;;;4923577;28;20063;-84
2022/04/15 09:40:14;;;;;;;2.70;2.30;;;;;;;;;;4924462;28;20106;-85
2022/04/15 09:42:45;;;;;;;5.60;3.20;;;;;;;;;;4924102;28;20123;-85
2022/04/15 09:45:17;;;;;;;6.60;3.58;;;;;;;;;;4920571;28;20044;-84
2022/04/15 09:47:55;;;;;;;13.05;11.20;;;;;;;;;;4921685;28;20082;-84
2022/04/15 09:50:29;;;;;;;4.53;3.38;;;;;;;;;;4926717;28;20056;-84
2022/04/15 09:53:15;;;;;;;3.95;3.60;;;;;;;;;;4927530;28;20055;-82
2022/04/15 09:55:46;;;;;;;4.53;3.30;;;;;;;;;;4930508;28;20055;-85
2022/04/15 09:58:18;;;;;;;4.25;3.70;;;;;;;;;;4926806;28;20079;-83
2022/04/15 10:00:48;;;;;;;4.20;3.00;;;;;;;;;;4924837;28;20469;-84
2022/04/15 10:03:19;;;;;;;5.03;3.20;;;;;;;;;;4924364;28;20132;-83
2022/04/15 10:05:46;;;;;;;4.93;3.17;;;;;;;;;;4923926;28;20052;-84
2022/04/15 10:08:15;;;;;;;4.45;2.80;;;;;;;;;;4922678;28;20055;-86
2022/04/15 10:10:42;;;;;;;3.20;3.00;;;;;;;;;;4924220;28;20083;-84
2022/04/15 10:13:09;;;;;;;5.30;3.08;;;;;;;;;;4925879;28;20084;-83
2022/04/15 10:15:37;;;;;;;11.82;10.15;;;;;;;;;;4927374;28;20147;-84
2022/04/15 10:18:05;;;;;;;14.00;11.77;;;;;;;;;;4928875;28;20056;-82
2022/04/15 10:20:32;;;;;;;4.15;3.60;;;;;;;;;;4926706;28;20087;-84
2022/04/15 10:23:01;;;;;;;4.70;3.58;;;;;;;;;;4922580;28;20052;-83
2022/04/15 10:25:30;;;;;;;4.50;2.72;;;;;;;;;;4923429;28;20060;-83
2022/04/15 10:28:15;;;;;;;2.85;2.15;;;;;;;;;;4922299;28;20098;-84
2022/04/15 10:31:01;;;;;;;3.65;3.15;;;;;;;;;;4924272;28;20106;-84
2022/04/15 10:33:29;;;;;;;3.40;3.00;;;;;;;;;;4921627;28;20052;-84
2022/04/15 10:36:20;;;;;;;3.25;2.60;;;;;;;;;;4922176;28;20048;-84
2022/04/15 10:39:03;;;;;;;4.20;2.60;;;;;;;;;;4948619;28;20048;-84
2022/04/15 10:41:50;;;;;;;3.00;2.80;;;;;;;;;;4922685;28;20052;-83
2022/04/15 10:44:30;;;;;;;4.05;3.78;;;;;;;;;;4922611;28;20422;-83
2022/04/15 10:46:58;;;;;;;2.92;2.78;;;;;;;;;;4923291;28;20048;-83
2022/04/15 10:49:27;;;;;;;4.18;2.78;;;;;;;;;;4922708;28;20470;-83
2022/04/15 10:52:01;;;;;;;3.20;2.92;;;;;;;;;;4922471;28;20056;-82
2022/04/15 10:54:31;;;;;;;3.65;3.10;;;;;;;;;;4922825;28;20052;-83
2022/04/15 10:56:59;;;;;;;3.53;3.28;;;;;;;;;;4920717;28;20056;-84
2022/04/15 11:02:20;;;;;;;5.63;3.30;;;;;;;;;;4922859;28;20084;-84
2022/04/15 11:04:52;;;;;;;3.38;3.08;;;;;;;;;;4924435;28;20515;-83
2022/04/15 11:07:29;;;;;;;3.88;3.42;;;;;;;;;;4924774;28;20109;-84
2022/04/15 11:09:58;;;;;;;4.43;3.40;;;;;;;;;;4922554;28;20294;-84
2022/04/15 11:12:35;;;;;;;3.38;2.90;;;;;;;;;;4919192;28;20096;-82
2022/04/15 11:15:03;;;;;;;8.20;3.40;;;;;;;;;;4901031;28;20140;-83
2022/04/15 11:17:39;;;;;;;4.45;3.08;;;;;;;;;;4899922;28;20084;-83
2022/04/15 11:20:10;;;;;;;5.50;3.72;;;;;;;;;;4900991;28;20503;-83
2022/04/15 11:22:38;;;;;;;5.00;3.42;;;;;;;;;;4900009;28;20052;-84
2022/04/15 11:25:07;;;;;;;4.63;3.35;;;;;;;;;;4900847;28;20049;-84
2022/04/15 11:27:35;;;;;;;3.97;3.40;;;;;;;;;;4998145;28;20045;-84
2022/04/15 11:30:06;;;;;;;5.13;3.85;;;;;;;;;;4997390;28;20076;-84
2022/04/15 11:32:45;;;;;;;4.97;4.18;;;;;;;;;;4996297;28;20057;-83
2022/04/15 11:35:12;;;;;;;5.40;4.85;;;;;;;;;;4899787;28;20092;-83
2022/04/15 11:37:39;;;;;;;7.93;5.15;;;;;;;;;;5007202;28;20056;-85
2022/04/15 11:40:07;;;;;;;6.53;5.85;;;;;;;;;;5006041;28;20107;-84
2022/04/15 11:42:34;;;;;;;7.72;5.15;;;;;;;;;;5010919;28;20059;-83
2022/04/15 11:45:04;;;;;;;6.28;5.60;;;;;;;;;;5012060;28;20471;-85
2022/04/15 11:47:33;;;;;;;6.57;5.65;;;;;;;;;;4911233;28;20075;-83
2022/04/15 11:50:00;;;;;;;5.90;5.40;;;;;;;;;;4912350;28;20048;-84
2022/04/15 11:52:31;;;;;;;7.28;5.82;;;;;;;;;;4913299;28;20056;-82
2022/04/15 11:54:59;;;;;;;5.88;5.38;;;;;;;;;;4913989;28;20075;-84
2022/04/15 11:57:29;;;;;;;7.05;5.70;;;;;;;;;;4913728;28;20526;-83
2022/04/15 11:59:56;;;;;;;5.10;4.70;;;;;;;;;;4914304;28;20052;-85
2022/04/15 12:02:25;;;;;;;24.10;7.70;;;;;;;;;;5008734;28;20056;-84
2022/04/15 12:04:53;;;;;;;6.63;5.55;;;;;;;;;;4912220;28;20056;-84
2022/04/15 12:07:21;;;;;;;6.35;5.32;;;;;;;;;;4911190;28;20053;-81
2022/04/15 12:09:50;;;;;;;5.00;4.50;;;;;;;;;;5009209;28;20059;-84
2022/04/15 12:12:17;;;;;;;6.03;5.40;;;;;;;;;;4911959;28;20057;-83
2022/04/15 12:14:44;;;;;;;5.68;5.07;;;;;;;;;;5008647;28;20079;-84
2022/04/15 12:17:14;;;;;;;11.88;4.53;;;;;;;;;;5004262;28;20080;-85
2022/04/15 12:19:42;;;;;;;6.03;4.55;;;;;;;;;;4901309;28;20052;-85
2022/04/15 12:22:09;;;;;;;5.65;4.72;;;;;;;;;;5004261;28;20076;-83
2022/04/15 12:24:37;;;;;;;5.22;4.72;;;;;;;;;;4913334;28;20064;-82
2022/04/15 12:27:05;;;;;;;6.15;4.30;;;;;;;;;;4914134;28;20053;-83
2022/04/15 12:29:48;;;;;;;5.15;4.65;;;;;;;;;;4914466;28;20072;-85
2022/04/15 12:32:38;;;;;;;4.97;4.05;;;;;;;;;;5009923;28;20057;-84
2022/04/15 12:35:09;;;;;;;5.57;4.55;;;;;;;;;;5009794;28;20057;-83
2022/04/15 12:37:36;;;;;;;4.80;3.67;;;;;;;;;;5009007;28;20052;-84
2022/04/15 12:40:10;;;;;;;4.88;4.38;;;;;;;;;;5009963;28;20083;-83
2022/04/15 12:42:39;;;;;;;4.70;4.30;;;;;;;;;;4911882;28;20049;-85
2022/04/15 12:45:21;;;;;;;9.90;4.55;;;;;;;;;;4911072;28;20072;-82
2022/04/15 12:48:01;;;;;;;26.35;5.05;;;;;;;;;;4910808;28;20063;-84
2022/04/15 12:50:33;;;;;;;4.03;3.70;;;;;;;;;;4909936;28;20048;-84
2022/04/15 12:53:02;;;;;;;4.22;3.95;;;;;;;;;;5005382;28;20159;-85
2022/04/15 12:55:31;;;;;;;7.82;4.65;;;;;;;;;;5008928;28;20064;-81
2022/04/15 12:58:02;;;;;;;4.47;4.10;;;;;;;;;;4911031;28;20056;-84
2022/04/15 13:00:30;;;;;;;5.55;3.88;;;;;;;;;;5000481;28;20538;-84
2022/04/15 13:02:58;;;;;;;4.47;4.07;;;;;;;;;;4999820;28;20159;-82
2022/04/15 13:05:25;;;;;;;5.82;3.67;;;;;;;;;;4998698;28;20149;-83
2022/04/15 13:07:53;;;;;;;3.30;3.03;;;;;;;;;;4998912;28;20123;-83
2022/04/15 13:10:20;;;;;;;4.18;3.83;;;;;;;;;;4996442;28;20053;-83
2022/04/15 13:13:08;;;;;;;4.45;3.20;;;;;;;;;;4982123;28;20048;-84
2022/04/15 13:15:36;;;;;;;7.05;4.03;;;;;;;;;;4902344;28;20048;-84
2022/04/15 13:18:03;;;;;;;4.68;4.28;;;;;;;;;;4999897;28;20060;-80
2022/04/15 13:20:30;;;;;;;3.78;3.45;;;;;;;;;;4901785;28;20049;-82
2022/04/15 13:22:58;;;;;;;3.45;3.17;;;;;;;;;;5006422;28;20080;-84
2022/04/15 13:25:25;;;;;;;3.72;3.35;;;;;;;;;;5010509;28;20076;-85
2022/04/15 13:27:53;;;;;;;3.55;3.25;;;;;;;;;;4911924;28;20056;-83
2022/04/15 13:30:20;;;;;;;2.88;2.65;;;;;;;;;;5009247;28;20045;-83
2022/04/15 13:32:47;;;;;;;3.20;2.90;;;;;;;;;;4911727;28;20067;-82
2022/04/15 13:35:14;;;;;;;3.00;2.80;;;;;;;;;;5004125;28;20083;-83
2022/04/15 13:37:41;;;;;;;3.75;2.80;;;;;;;;;;5006415;28;20084;-85
2022/04/15 13:40:09;;;;;;;5.20;2.90;;;;;;;;;;4914500;28;20062;-85
2022/04/15 13:42:36;;;;;;;2.78;2.58;;;;;;;;;;5012146;28;20061;-83
2022/04/15 13:45:03;;;;;;;3.50;3.30;;;;;;;;;;5012391;28;20063;-83
2022/04/15 13:47:31;;;;;;;3.30;2.97;;;;;;;;;;5011701;28;20049;-83
2022/04/15 13:50:00;;;;;;;3.63;3.15;;;;;;;;;;4914439;28;20443;-84
2022/04/15 13:57:59;;;;;;;3.10;2.90;;;;;;;;;;4913522;28;20063;-85
2022/04/15 14:00:26;;;;;;;2.80;2.60;;;;;;;;;;5008020;28;20084;-84
2022/04/15 14:02:53;;;;;;;2.60;2.50;;;;;;;;;;4993953;23;20069;-82
2022/04/15 14:05:20;;;;;;;3.08;2.80;;;;;;;;;;5007374;28;20045;-82
2022/04/15 14:07:47;;;;;;;3.10;2.90;;;;;;;;;;5025613;28;20053;-83
2022/04/15 14:10:14;;;;;;;3.30;3.10;;;;;;;;;;5025728;28;20105;-82
2022/04/15 14:12:43;;;;;;;2.95;2.75;;;;;;;;;;5017737;28;20401;-83
2022/04/15 14:15:11;;;;;;;3.40;3.15;;;;;;;;;;5044011;28;20053;-82
2022/04/15 14:17:38;;;;;;;2.80;2.70;;;;;;;;;;5046174;28;20077;-83
2022/04/15 14:20:06;;;;;;;4.80;3.05;;;;;;;;;;5028427;28;20077;-83
2022/04/15 14:22:34;;;;;;;3.20;2.80;;;;;;;;;;5027819;28;20118;-83
2022/04/15 14:25:02;;;;;;;3.28;3.05;;;;;;;;;;5045230;28;20133;-83
2022/04/15 14:27:29;;;;;;;2.67;2.50;;;;;;;;;;5028948;28;20081;-83
2022/04/15 14:29:56;;;;;;;3.30;3.00;;;;;;;;;;5030116;28;20051;-82
2022/04/15 14:32:23;;;;;;;3.20;3.00;;;;;;;;;;5047934;28;20046;-83
2022/04/15 14:34:53;;;;;;;2.70;2.60;;;;;;;;;;5027162;28;20053;-82
2022/04/15 14:37:21;;;;;;;2.45;2.25;;;;;;;;;;5043600;28;20049;-83
2022/04/15 14:39:48;;;;;;;2.10;2.00;;;;;;;;;;5043682;28;20080;-83
2022/04/15 14:42:16;;;;;;;2.00;1.90;;;;;;;;;;5043289;28;20049;-82
2022/04/15 14:44:43;;;;;;;2.10;2.00;;;;;;;;;;5042047;28;20099;-82
2022/04/15 14:47:10;;;;;;;2.13;2.03;;;;;;;;;;5042088;28;20460;-82
2022/04/15 14:49:38;;;;;;;1.80;1.70;;;;;;;;;;5023279;28;20077;-82
2022/04/15 14:52:05;;;;;;;1.75;1.65;;;;;;;;;;5040352;28;20162;-83
2022/04/15 14:54:33;;;;;;;2.78;1.90;;;;;;;;;;5022465;28;20080;-82
2022/04/15 14:57:01;;;;;;;1.67;1.58;;;;;;;;;;5038825;28;20136;-82